Time;durP1;ratioP1;P1;durP2;ratioP2;P2;SDS_P1;SDS_P2;PMS_P1;PMS_P2;Temp;Humidity;BMP_temperature;BMP_pressure;BME280_temperature;BME280_humidity;BME280_pressure;Samples;Min_cycle;Max_cycle;Signal;HPM_P1;HPM_P2
2022/01/21 00:01:35;;;;;;;7.25;1.50;;;-3274.80;81.40;;;;;;5043785;28;20037;-82
2022/01/21 00:04:00;;;;;;;12.95;2.40;;;-3274.80;81.70;;;;;;5042694;28;20026;-82
2022/01/21 00:06:26;;;;;;;9.10;1.45;;;-3274.70;81.80;;;;;;5037704;28;20396;-82
2022/01/21 00:08:52;;;;;;;4.88;1.10;;;-3274.70;81.80;;;;;;5045418;28;20114;-82
2022/01/21 00:11:19;;;;;;;8.10;1.27;;;-3274.70;81.60;;;;;;5049470;28;20035;-82
2022/01/21 00:13:45;;;;;;;9.50;1.30;;;-3274.70;81.40;;;;;;5049762;28;20516;-82
2022/01/21 00:16:25;;;;;;;8.68;1.25;;;-3274.70;81.30;;;;;;5048412;28;20025;-82
2022/01/21 00:18:59;;;;;;;5.68;1.23;;;-3274.60;81.50;;;;;;5045400;28;20041;-82
2022/01/21 00:32:23;;;;;;;10.38;1.38;;;-3274.40;82.70;;;;;;5051269;28;20078;-82
2022/01/21 00:34:49;;;;;;;5.93;0.98;;;-3274.40;82.70;;;;;;5049599;28;20029;-82
2022/01/21 00:37:15;;;;;;;5.70;1.25;;;-3274.30;83.00;;;;;;5050596;28;20021;-82
2022/01/21 00:39:40;;;;;;;6.05;1.10;;;-3274.30;83.20;;;;;;5046939;28;20020;-83
2022/01/21 00:44:48;;;;;;;10.63;1.10;;;-3274.30;83.20;;;;;;5051169;28;20033;-82
2022/01/21 00:47:14;;;;;;;9.32;1.42;;;-3274.30;83.40;;;;;;5047929;28;20029;-82
2022/01/21 00:49:40;;;;;;;10.57;1.25;;;-3274.30;83.40;;;;;;5049141;28;20037;-82
2022/01/21 00:52:06;;;;;;;9.23;1.98;;;-3274.30;83.50;;;;;;5055741;28;20522;-82
2022/01/21 00:54:31;;;;;;;6.68;1.40;;;-3274.20;83.70;;;;;;5036083;28;20017;-82
2022/01/21 00:56:57;;;;;;;8.15;1.50;;;-3274.20;83.80;;;;;;5051545;28;20370;-82
2022/01/21 00:59:22;;;;;;;8.73;1.77;;;-3274.20;83.90;;;;;;5041757;28;20435;-82
2022/01/21 01:01:48;;;;;;;8.00;1.08;;;-3274.10;84.00;;;;;;5049890;28;20051;-82
2022/01/21 01:04:13;;;;;;;7.85;1.25;;;-3274.10;84.20;;;;;;5043038;28;20056;-82
2022/01/21 01:06:39;;;;;;;7.03;1.48;;;-3274.20;84.20;;;;;;5052783;28;20116;-82
2022/01/21 01:09:05;;;;;;;5.20;1.27;;;-3274.10;84.30;;;;;;5044939;28;20148;-82
2022/01/21 01:11:49;;;;;;;8.25;1.45;;;-3274.10;84.40;;;;;;5049573;28;20029;-82
2022/01/21 01:19:57;;;;;;;3.65;1.45;;;-3274.00;84.90;;;;;;5042099;28;20032;-83
2022/01/21 01:22:35;;;;;;;6.03;1.52;;;-3274.10;85.10;;;;;;5051033;28;20032;-82
2022/01/21 01:27:45;;;;;;;7.68;1.17;;;-3274.20;85.10;;;;;;5052810;28;20035;-82
2022/01/21 01:30:14;;;;;;;4.78;1.63;;;-3274.20;85.10;;;;;;5036661;28;20483;-82
2022/01/21 01:32:41;;;;;;;8.82;1.52;;;-3274.30;85.10;;;;;;5046510;28;20025;-82
2022/01/21 01:35:09;;;;;;;10.55;1.58;;;-3274.20;85.10;;;;;;5052735;28;20021;-82
2022/01/21 01:50:37;;;;;;;8.63;1.73;;;-3274.30;86.30;;;;;;5035955;28;20507;-82
2022/01/21 01:53:05;;;;;;;7.80;1.95;;;-3274.20;86.50;;;;;;5046031;28;20021;-82
2022/01/21 01:55:31;;;;;;;9.15;1.77;;;-3274.20;86.50;;;;;;5049699;28;20563;-82
2022/01/21 01:57:56;;;;;;;13.98;2.22;;;-3274.10;87.10;;;;;;5048818;28;20092;-82
2022/01/21 02:00:22;;;;;;;10.55;1.65;;;-3274.00;87.20;;;;;;5047080;28;20378;-82
2022/01/21 02:02:47;;;;;;;10.82;1.52;;;-3274.00;87.60;;;;;;5035465;28;20030;-82
2022/01/21 02:05:13;;;;;;;6.80;1.40;;;-3273.90;88.00;;;;;;5042007;28;20022;-82
2022/01/21 02:07:39;;;;;;;9.95;2.05;;;-3273.90;88.40;;;;;;5041046;28;20036;-82
2022/01/21 02:10:04;;;;;;;8.63;1.75;;;-3273.80;88.70;;;;;;5041349;28;20037;-82
2022/01/21 02:12:30;;;;;;;7.63;1.52;;;-3273.90;89.10;;;;;;5050227;28;20098;-82
2022/01/21 02:14:58;;;;;;;11.35;1.90;;;-3273.90;89.20;;;;;;5047029;28;20083;-82
2022/01/21 02:22:44;;;;;;;9.68;1.75;;;-3274.00;90.10;;;;;;5043045;28;20032;-82
2022/01/21 02:25:20;;;;;;;12.25;1.88;;;-3274.10;90.50;;;;;;5046320;28;20550;-82
2022/01/21 02:27:48;;;;;;;6.20;1.83;;;-3274.30;90.90;;;;;;5044924;28;20029;-82
2022/01/21 02:30:19;;;;;;;7.35;1.58;;;-3274.40;91.10;;;;;;5041400;28;20064;-81
2022/01/21 02:32:56;;;;;;;8.82;1.60;;;-3274.50;91.20;;;;;;5060475;28;20032;-82
2022/01/21 02:35:24;;;;;;;8.20;1.80;;;-3274.50;91.40;;;;;;5037785;28;20033;-82
2022/01/21 02:37:50;;;;;;;9.48;1.85;;;-3274.60;91.60;;;;;;5045223;28;20078;-82
2022/01/21 02:40:17;;;;;;;14.57;2.03;;;-3274.60;91.80;;;;;;5044194;28;20056;-82
2022/01/21 02:42:43;;;;;;;9.38;2.10;;;-3274.70;91.90;;;;;;5049652;28;20490;-82
2022/01/21 02:45:10;;;;;;;13.38;1.83;;;-3274.70;92.00;;;;;;5028729;28;20028;-83
2022/01/21 02:47:35;;;;;;;8.57;2.10;;;-3274.70;92.10;;;;;;5051691;28;20032;-82
2022/01/21 02:50:01;;;;;;;18.55;3.00;;;-3274.70;92.00;;;;;;5050508;28;20033;-82
2022/01/21 02:52:30;;;;;;;11.63;2.03;;;-3274.70;92.10;;;;;;5040877;28;20021;-82
2022/01/21 02:54:55;;;;;;;14.63;2.70;;;-3274.70;92.30;;;;;;5047271;28;20017;-82
2022/01/21 02:57:21;;;;;;;13.73;2.70;;;-3274.70;92.40;;;;;;5049553;28;20029;-82
2022/01/21 02:59:49;;;;;;;8.55;2.03;;;-3274.90;92.70;;;;;;5036411;28;20115;-82
2022/01/21 03:02:14;;;;;;;17.60;2.38;;;-3275.00;92.80;;;;;;5039131;28;20025;-82
2022/01/21 03:04:52;;;;;;;21.75;2.53;;;-3275.00;92.90;;;;;;5042819;28;20033;-82
2022/01/21 03:07:18;;;;;;;18.10;2.70;;;-3275.00;92.80;;;;;;5050361;28;20488;-82
2022/01/21 03:09:43;;;;;;;9.48;2.10;;;-3275.10;92.90;;;;;;5048526;28;20060;-84
2022/01/21 03:12:09;;;;;;;18.00;2.13;;;-3275.10;93.00;;;;;;5035801;28;20056;-83
2022/01/21 03:14:35;;;;;;;16.67;1.98;;;-3275.20;93.00;;;;;;5049075;28;20049;-83
2022/01/21 03:17:00;;;;;;;9.90;1.95;;;-3275.20;92.90;;;;;;5049736;28;20116;-83
2022/01/21 03:19:26;;;;;;;17.27;2.13;;;-3275.40;93.00;;;;;;5042601;28;20025;-83
2022/01/21 03:21:51;;;;;;;10.23;2.65;;;-3275.50;93.00;;;;;;5044042;28;20033;-82
2022/01/21 03:24:17;;;;;;;24.38;2.50;;;-3275.60;92.90;;;;;;5046802;28;20034;-83
2022/01/21 03:26:42;;;;;;;12.98;2.50;;;-3275.70;92.70;;;;;;5062187;28;20036;-83
2022/01/21 03:29:08;;;;;;;12.48;2.20;;;-3275.70;92.60;;;;;;5042020;28;20025;-83
2022/01/21 03:31:34;;;;;;;12.98;2.55;;;-3275.80;92.60;;;;;;5028717;28;20025;-83
2022/01/21 03:34:01;;;;;;;12.95;2.55;;;-3275.90;92.60;;;;;;5031028;28;20026;-83
2022/01/21 03:36:28;;;;;;;18.65;2.67;;;-3276.00;92.40;;;;;;5039918;28;20385;-83
2022/01/21 03:38:54;;;;;;;15.98;2.17;;;-3276.00;92.20;;;;;;5042488;28;20028;-83
2022/01/21 03:41:20;;;;;;;20.27;3.35;;;-3276.10;92.10;;;;;;5051811;28;20582;-84
2022/01/21 03:43:47;;;;;;;11.07;1.65;;;-3276.10;91.90;;;;;;5045856;28;20124;-84
2022/01/21 03:46:13;;;;;;;15.90;2.60;;;-3276.10;91.90;;;;;;5048438;28;20025;-83
2022/01/21 03:48:39;;;;;;;23.55;2.90;;;-3276.20;91.90;;;;;;5047874;28;20519;-83
2022/01/21 03:51:05;;;;;;;18.17;2.63;;;-3276.30;91.80;;;;;;5044308;28;20021;-83
2022/01/21 03:53:30;;;;;;;12.23;2.28;;;-3276.30;91.70;;;;;;5042233;28;20029;-83
2022/01/21 03:55:56;;;;;;;12.50;2.13;;;-3276.30;91.70;;;;;;5050764;28;20025;-83
2022/01/21 03:58:21;;;;;;;13.48;1.85;;;-3276.30;91.70;;;;;;5052445;28;20029;-83
2022/01/21 04:00:50;;;;;;;12.68;2.25;;;-3276.40;91.60;;;;;;5043659;28;20437;-83
2022/01/21 04:03:15;;;;;;;10.10;2.78;;;-3276.40;91.50;;;;;;5051819;28;20385;-83
2022/01/21 04:05:41;;;;;;;15.05;2.05;;;-3276.50;91.50;;;;;;5050445;28;20029;-84
2022/01/21 04:08:08;;;;;;;14.45;2.35;;;-3276.60;91.30;;;;;;5042934;28;20518;-84
2022/01/21 04:10:41;;;;;;;12.32;2.65;;;-3276.60;91.20;;;;;;5050323;28;20037;-84
2022/01/21 04:13:13;;;;;;;22.33;2.55;;;-3276.70;91.10;;;;;;5051798;28;20076;-84
2022/01/21 04:15:39;;;;;;;14.85;2.40;;;-3276.70;91.00;;;;;;5051969;28;20032;-84
2022/01/21 04:18:04;;;;;;;20.48;2.70;;;-3276.70;91.00;;;;;;5042885;28;20033;-84
2022/01/21 04:20:30;;;;;;;17.50;2.75;;;-3276.70;91.10;;;;;;5042210;28;20539;-83
2022/01/21 04:22:55;;;;;;;14.85;2.50;;;0.00;91.00;;;;;;5050995;28;20041;-84
2022/01/21 04:25:21;;;;;;;7.82;1.55;;;0.00;91.00;;;;;;5044771;28;20048;-84
2022/01/21 04:27:46;;;;;;;15.15;2.35;;;0.00;91.10;;;;;;5044322;28;20056;-84
2022/01/21 04:30:12;;;;;;;12.20;2.10;;;0.00;91.10;;;;;;5049234;28;20663;-84
2022/01/21 04:32:38;;;;;;;17.13;2.17;;;0.00;91.20;;;;;;5045492;28;20079;-84
2022/01/21 04:35:04;;;;;;;15.85;2.20;;;0.00;91.40;;;;;;5047142;28;20104;-84
2022/01/21 04:37:30;;;;;;;12.65;2.08;;;0.00;91.50;;;;;;5051117;28;20029;-84
2022/01/21 04:40:04;;;;;;;8.98;2.33;;;0.00;91.70;;;;;;5050920;28;20024;-84
2022/01/21 04:47:57;;;;;;;10.50;2.08;;;0.00;91.90;;;;;;5045188;28;20031;-85
2022/01/21 04:50:25;;;;;;;19.42;2.47;;;0.00;91.90;;;;;;5043039;28;20041;-85
2022/01/21 04:52:50;;;;;;;11.57;2.58;;;0.00;91.80;;;;;;5050870;28;20446;-85
2022/01/21 04:55:16;;;;;;;9.73;2.40;;;0.00;91.80;;;;;;5036967;28;20159;-85
2022/01/21 04:57:42;;;;;;;12.82;2.97;;;0.10;91.90;;;;;;5050835;28;20104;-85
2022/01/21 05:00:08;;;;;;;18.80;2.63;;;0.10;91.90;;;;;;5040316;28;20053;-84
2022/01/21 05:02:35;;;;;;;14.82;2.08;;;0.10;91.90;;;;;;5040490;28;20084;-84
2022/01/21 05:05:02;;;;;;;11.70;2.22;;;0.10;91.80;;;;;;5046959;28;20485;-84
2022/01/21 05:07:29;;;;;;;14.77;2.17;;;0.20;91.80;;;;;;5040707;28;20078;-85
2022/01/21 05:09:55;;;;;;;14.02;2.05;;;0.20;91.70;;;;;;5045638;28;20057;-85
2022/01/21 05:12:21;;;;;;;8.23;1.92;;;0.20;91.50;;;;;;5050652;28;20491;-84
2022/01/21 05:17:16;;;;;;;10.45;2.13;;;0.40;91.70;;;;;;5050974;28;20021;-84
2022/01/21 05:19:42;;;;;;;12.98;2.20;;;0.60;91.60;;;;;;5037581;28;20029;-86
2022/01/21 05:22:08;;;;;;;7.07;1.80;;;0.70;91.70;;;;;;5039277;28;20028;-85
2022/01/21 05:24:33;;;;;;;12.57;1.83;;;0.90;92.30;;;;;;5050942;28;20182;-85
2022/01/21 05:27:01;;;;;;;11.57;1.65;;;0.90;92.50;;;;;;5048104;28;20093;-85
2022/01/21 05:29:32;;;;;;;10.65;1.85;;;0.90;92.80;;;;;;5049492;28;20037;-85
2022/01/21 05:31:58;;;;;;;13.05;2.45;;;0.80;93.20;;;;;;5042551;28;20038;-84
2022/01/21 05:34:24;;;;;;;7.13;1.08;;;0.80;93.60;;;;;;5042836;28;20163;-84
2022/01/21 05:36:50;;;;;;;14.25;1.90;;;0.70;93.90;;;;;;5048349;28;20068;-85
2022/01/21 05:39:17;;;;;;;9.45;1.92;;;0.70;94.00;;;;;;5046406;28;20510;-84
2022/01/21 05:41:50;;;;;;;12.77;2.03;;;0.70;94.10;;;;;;5046381;28;20025;-84
2022/01/21 05:47:08;;;;;;;14.40;2.50;;;0.70;94.50;;;;;;5017920;28;20073;-84
2022/01/21 05:49:36;;;;;;;14.45;1.60;;;0.70;94.60;;;;;;5046114;28;20052;-85
2022/01/21 05:52:06;;;;;;;11.65;1.98;;;0.70;94.60;;;;;;5040165;28;20034;-84
2022/01/21 05:54:32;;;;;;;6.28;1.67;;;0.70;94.60;;;;;;5045299;28;20041;-84
2022/01/21 05:57:01;;;;;;;15.95;2.10;;;0.70;94.60;;;;;;5047169;28;20114;-84
2022/01/21 05:59:27;;;;;;;10.82;1.75;;;0.70;94.40;;;;;;5043758;28;20024;-85
2022/01/21 06:01:52;;;;;;;14.10;2.22;;;0.70;94.40;;;;;;5044691;28;20501;-83
2022/01/21 06:04:18;;;;;;;10.52;2.15;;;0.60;94.30;;;;;;5035286;28;20029;-83
2022/01/21 06:06:44;;;;;;;16.13;2.65;;;0.70;94.30;;;;;;5050047;28;20033;-84
2022/01/21 06:09:09;;;;;;;8.32;2.03;;;0.60;94.20;;;;;;5048472;28;20119;-84
2022/01/21 06:11:35;;;;;;;15.68;1.88;;;0.60;94.20;;;;;;5047690;28;20114;-84
2022/01/21 06:14:02;;;;;;;10.07;2.17;;;0.50;94.30;;;;;;5048696;28;20496;-84
2022/01/21 06:16:28;;;;;;;12.18;1.85;;;0.50;94.30;;;;;;5029197;28;20075;-84
2022/01/21 06:18:54;;;;;;;14.95;2.38;;;0.40;94.30;;;;;;5035206;28;20021;-84
2022/01/21 06:21:20;;;;;;;13.98;2.28;;;0.40;94.40;;;;;;5030385;28;20029;-84
2022/01/21 06:23:46;;;;;;;11.70;1.80;;;0.30;94.50;;;;;;5042792;28;20559;-84
2022/01/21 06:26:12;;;;;;;8.85;2.13;;;0.40;94.70;;;;;;5042587;28;20132;-84
2022/01/21 06:28:47;;;;;;;15.60;2.10;;;0.40;94.70;;;;;;5044638;28;20637;-84
2022/01/21 06:31:15;;;;;;;17.25;2.58;;;0.40;94.70;;;;;;5044899;28;20116;-84
2022/01/21 06:33:40;;;;;;;18.88;2.30;;;0.40;94.70;;;;;;5051181;28;20031;-84
2022/01/21 06:36:06;;;;;;;12.55;1.50;;;0.40;94.70;;;;;;5039093;28;20029;-84
2022/01/21 06:38:32;;;;;;;12.05;2.97;;;0.40;94.50;;;;;;5038336;28;20049;-84
2022/01/21 06:40:57;;;;;;;17.00;2.90;;;0.30;94.50;;;;;;5047345;28;20070;-84
2022/01/21 06:43:23;;;;;;;13.68;2.80;;;0.30;94.60;;;;;;5045042;28;20025;-84
2022/01/21 06:45:48;;;;;;;12.85;2.08;;;0.20;94.70;;;;;;5046212;28;20309;-84
2022/01/21 06:48:14;;;;;;;17.48;2.47;;;0.20;94.90;;;;;;5049082;28;20025;-84
2022/01/21 06:50:42;;;;;;;15.88;2.25;;;0.10;95.00;;;;;;5038880;28;20065;-84
2022/01/21 06:53:08;;;;;;;12.57;2.33;;;0.10;95.00;;;;;;5035402;28;20029;-84
2022/01/21 06:55:34;;;;;;;9.20;1.70;;;0.00;95.10;;;;;;5044593;28;20025;-84
2022/01/21 06:58:00;;;;;;;16.00;2.45;;;0.00;95.30;;;;;;5038032;28;20025;-84
2022/01/21 07:00:25;;;;;;;20.27;2.60;;;0.10;95.30;;;;;;5031693;28;20029;-84
2022/01/21 07:02:53;;;;;;;16.52;2.33;;;0.10;95.50;;;;;;5048621;28;20036;-84
2022/01/21 07:05:20;;;;;;;19.52;2.70;;;0.20;95.40;;;;;;5048514;28;20029;-84
2022/01/21 07:07:46;;;;;;;15.88;2.88;;;0.20;95.30;;;;;;5049765;28;20039;-84
2022/01/21 07:10:14;;;;;;;17.23;2.35;;;0.10;95.30;;;;;;5047365;28;20025;-84
2022/01/21 07:12:41;;;;;;;13.52;1.92;;;0.10;95.30;;;;;;5049423;28;20425;-84
2022/01/21 07:15:08;;;;;;;16.92;2.10;;;0.10;95.50;;;;;;5047737;28;20060;-84
2022/01/21 07:17:34;;;;;;;17.15;2.10;;;0.10;95.50;;;;;;5047317;28;20416;-84
2022/01/21 07:20:00;;;;;;;16.48;2.50;;;0.10;95.70;;;;;;5035062;28;20029;-84
2022/01/21 07:22:26;;;;;;;14.63;2.03;;;0.10;95.60;;;;;;5057496;28;20216;-84
2022/01/21 07:24:52;;;;;;;13.20;1.63;;;0.20;95.70;;;;;;5048113;28;20037;-84
2022/01/21 07:27:17;;;;;;;17.35;2.47;;;0.20;95.50;;;;;;5050262;28;20029;-84
2022/01/21 07:29:43;;;;;;;10.43;2.22;;;0.20;95.60;;;;;;5042158;28;20187;-84
2022/01/21 07:32:09;;;;;;;19.05;2.53;;;0.20;95.50;;;;;;5052727;28;20029;-84
2022/01/21 07:34:35;;;;;;;14.52;1.50;;;0.20;95.50;;;;;;5053572;28;20115;-84
2022/01/21 07:37:01;;;;;;;11.60;1.75;;;0.10;95.40;;;;;;5044728;28;20104;-84
2022/01/21 07:39:26;;;;;;;17.10;1.98;;;0.10;95.40;;;;;;5048995;28;20028;-84
2022/01/21 07:41:52;;;;;;;15.85;2.83;;;0.10;95.50;;;;;;5044865;28;20308;-83
2022/01/21 07:44:18;;;;;;;15.82;2.03;;;0.10;95.50;;;;;;5062589;28;20025;-83
2022/01/21 07:46:45;;;;;;;15.93;2.08;;;0.10;95.40;;;;;;5044081;28;20553;-83
2022/01/21 07:49:11;;;;;;;23.15;2.70;;;0.10;95.50;;;;;;5051963;28;20033;-84
2022/01/21 07:51:36;;;;;;;15.77;2.33;;;0.10;95.40;;;;;;5044513;28;20431;-84
2022/01/21 07:54:03;;;;;;;10.27;1.90;;;0.10;95.30;;;;;;5048042;28;20052;-83
2022/01/21 07:56:32;;;;;;;16.92;2.30;;;0.10;95.20;;;;;;5058762;28;20025;-84
2022/01/21 07:58:57;;;;;;;18.17;1.83;;;0.20;95.10;;;;;;5041559;28;20009;-84
2022/01/21 08:01:23;;;;;;;21.15;2.60;;;0.20;94.80;;;;;;5049975;28;20433;-83
2022/01/21 08:03:48;;;;;;;10.23;1.90;;;0.30;94.70;;;;;;5049537;28;20036;-84
2022/01/21 08:06:15;;;;;;;12.05;2.25;;;0.40;94.30;;;;;;5046335;28;20051;-84
2022/01/21 08:08:40;;;;;;;17.92;2.28;;;0.60;93.60;;;;;;5053446;28;20518;-84
2022/01/21 08:11:06;;;;;;;13.45;1.90;;;0.70;92.90;;;;;;5048630;28;20030;-84
2022/01/21 08:13:31;;;;;;;18.33;2.30;;;0.60;92.60;;;;;;5049962;28;20048;-85
2022/01/21 08:16:01;;;;;;;14.43;2.30;;;0.70;92.10;;;;;;5052291;28;20578;-84
2022/01/21 08:18:27;;;;;;;9.40;1.60;;;0.80;91.70;;;;;;5047679;28;20029;-84
2022/01/21 08:20:52;;;;;;;9.60;2.25;;;0.70;91.60;;;;;;5048732;28;20037;-85
2022/01/21 08:23:18;;;;;;;14.00;2.53;;;0.70;91.50;;;;;;5051407;28;20128;-86
2022/01/21 08:25:44;;;;;;;15.20;2.55;;;0.60;91.70;;;;;;5050726;28;20032;-85
2022/01/21 08:28:09;;;;;;;14.75;1.70;;;0.50;91.90;;;;;;5043691;28;20079;-84
2022/01/21 08:30:36;;;;;;;13.40;2.13;;;0.40;91.90;;;;;;5049702;28;20128;-84
2022/01/21 08:33:02;;;;;;;11.77;2.83;;;0.40;92.20;;;;;;5037697;28;20065;-84
2022/01/21 08:35:27;;;;;;;14.70;2.20;;;0.30;92.20;;;;;;5043338;28;20088;-84
2022/01/21 08:37:53;;;;;;;17.60;2.42;;;0.20;92.60;;;;;;5034087;28;20080;-84
2022/01/21 08:40:23;;;;;;;12.25;2.30;;;0.20;93.00;;;;;;5052217;28;20096;-84
2022/01/21 08:42:49;;;;;;;17.52;3.03;;;0.20;93.10;;;;;;5052906;28;20033;-84
2022/01/21 08:45:15;;;;;;;14.93;2.22;;;0.20;93.20;;;;;;5050753;28;20037;-84
2022/01/21 08:47:41;;;;;;;16.10;2.22;;;0.10;93.20;;;;;;5053275;28;20180;-85
2022/01/21 08:50:10;;;;;;;11.35;1.58;;;0.20;93.20;;;;;;5052345;28;20025;-84
2022/01/21 08:52:37;;;;;;;14.07;2.20;;;0.20;93.20;;;;;;5049349;28;20037;-84
2022/01/21 08:55:09;;;;;;;12.02;2.13;;;0.30;93.10;;;;;;5033862;28;20060;-84
2022/01/21 08:57:37;;;;;;;12.55;2.47;;;0.40;92.80;;;;;;5031144;28;20028;-85
2022/01/21 09:00:09;;;;;;;12.68;2.33;;;0.40;92.70;;;;;;5042741;28;20017;-85
2022/01/21 09:02:34;;;;;;;13.93;1.70;;;0.50;92.70;;;;;;5049064;28;20040;-86
2022/01/21 09:05:00;;;;;;;28.63;8.07;;;0.50;92.40;;;;;;5050273;28;20036;-86
2022/01/21 09:07:25;;;;;;;14.27;2.63;;;0.60;92.10;;;;;;5038502;28;20064;-86
2022/01/21 09:09:51;;;;;;;13.93;2.70;;;0.70;91.70;;;;;;5048651;28;20032;-86
2022/01/21 09:12:16;;;;;;;14.43;3.45;;;0.80;91.20;;;;;;5034126;28;20109;-86
2022/01/21 09:14:42;;;;;;;6.85;1.65;;;0.80;90.90;;;;;;5040831;28;20064;-86
2022/01/21 09:17:07;;;;;;;12.00;2.22;;;1.00;90.00;;;;;;5049242;28;20511;-86
2022/01/21 09:19:33;;;;;;;14.85;2.60;;;1.10;89.20;;;;;;5043747;28;20052;-86
2022/01/21 09:22:02;;;;;;;14.10;2.45;;;1.10;89.30;;;;;;5051627;28;20064;-86
2022/01/21 09:24:28;;;;;;;12.27;2.67;;;1.10;89.40;;;;;;5038901;28;20021;-86
2022/01/21 09:26:53;;;;;;;7.10;1.52;;;1.20;89.20;;;;;;5047656;28;20062;-86
2022/01/21 09:29:19;;;;;;;11.43;1.70;;;1.20;88.90;;;;;;5049097;28;20157;-86
2022/01/21 09:31:45;;;;;;;13.85;1.75;;;1.30;88.20;;;;;;5038197;28;20056;-86
2022/01/21 09:34:10;;;;;;;14.95;2.17;;;1.40;88.00;;;;;;5046698;28;20436;-85
2022/01/21 09:36:36;;;;;;;11.07;2.50;;;1.50;88.10;;;;;;5048330;28;20119;-85
2022/01/21 09:39:03;;;;;;;9.98;2.00;;;1.50;87.40;;;;;;5051254;28;20167;-85
2022/01/21 09:41:29;;;;;;;10.93;1.83;;;1.60;87.30;;;;;;5040898;28;20053;-85
2022/01/21 09:43:56;;;;;;;13.80;1.83;;;1.70;86.80;;;;;;5047477;28;20017;-85
2022/01/21 09:46:33;;;;;;;9.60;1.67;;;1.70;86.90;;;;;;5032204;28;20072;-85
2022/01/21 09:49:09;;;;;;;8.93;2.08;;;1.80;86.60;;;;;;5047903;28;20032;-86
2022/01/21 09:51:36;;;;;;;11.57;2.17;;;1.90;86.80;;;;;;5049744;28;20032;-86
2022/01/21 09:54:06;;;;;;;11.98;1.95;;;2.10;87.00;;;;;;5042684;28;20032;-86
2022/01/21 09:56:32;;;;;;;8.68;1.65;;;2.10;87.00;;;;;;5044584;28;20493;-86
2022/01/21 09:58:59;;;;;;;13.82;2.30;;;2.10;87.40;;;;;;5042237;28;20032;-85
2022/01/21 10:01:26;;;;;;;9.05;2.10;;;2.40;87.10;;;;;;5048093;28;20708;-86
2022/01/21 10:03:52;;;;;;;9.48;1.65;;;2.50;86.60;;;;;;5049032;28;20025;-86
2022/01/21 10:06:21;;;;;;;14.82;2.55;;;2.60;86.60;;;;;;5037225;28;20021;-86
2022/01/21 10:08:48;;;;;;;9.18;1.63;;;2.60;86.40;;;;;;5058358;28;20036;-86
2022/01/21 10:11:14;;;;;;;10.82;1.45;;;2.60;86.20;;;;;;5054303;28;20400;-86
2022/01/21 10:13:39;;;;;;;13.48;2.00;;;2.60;86.20;;;;;;5055039;28;20045;-86
2022/01/21 10:16:06;;;;;;;14.27;2.33;;;2.70;86.20;;;;;;5041351;28;20037;-86
2022/01/21 10:18:32;;;;;;;8.48;1.77;;;2.90;85.90;;;;;;5046735;28;20032;-86
2022/01/21 10:20:58;;;;;;;14.00;2.15;;;2.90;85.20;;;;;;5039807;28;20033;-85
2022/01/21 10:23:25;;;;;;;9.23;1.73;;;2.80;85.30;;;;;;5050439;28;20029;-85
2022/01/21 10:26:09;;;;;;;9.82;1.58;;;2.80;85.50;;;;;;5039608;28;20033;-85
2022/01/21 10:28:36;;;;;;;8.90;1.80;;;2.90;85.20;;;;;;5048599;28;20025;-85
2022/01/21 10:31:16;;;;;;;12.65;2.58;;;3.00;84.50;;;;;;5038371;28;20087;-85
2022/01/21 10:33:47;;;;;;;7.43;1.75;;;3.00;84.40;;;;;;5049123;28;20060;-85
2022/01/21 10:36:29;;;;;;;15.77;2.22;;;3.00;83.60;;;;;;5046318;28;20035;-85
2022/01/21 10:38:58;;;;;;;9.77;1.90;;;3.00;84.40;;;;;;5054843;28;20032;-85
2022/01/21 10:41:33;;;;;;;9.85;1.85;;;2.90;83.90;;;;;;5040256;28;20032;-85
2022/01/21 10:44:19;;;;;;;10.75;1.58;;;2.90;83.70;;;;;;5050580;28;20052;-85
2022/01/21 10:47:20;;;;;;;10.55;1.60;;;2.80;83.90;;;;;;5048580;28;20021;-85
2022/01/21 10:50:02;;;;;;;16.42;2.13;;;2.90;83.40;;;;;;5044970;28;20087;-85
2022/01/21 10:52:51;;;;;;;13.70;2.00;;;3.00;83.20;;;;;;5048216;28;20045;-85
2022/01/21 10:55:38;;;;;;;9.32;1.63;;;3.00;83.50;;;;;;5046504;28;20028;-85
2022/01/21 10:58:13;;;;;;;12.93;1.75;;;3.40;82.50;;;;;;5045862;28;20043;-85
2022/01/21 11:01:03;;;;;;;11.05;1.60;;;3.60;82.30;;;;;;5045477;28;20537;-85
2022/01/21 11:03:32;;;;;;;8.88;1.70;;;3.80;81.50;;;;;;5058814;28;20037;-85
2022/01/21 11:06:14;;;;;;;11.75;2.08;;;3.90;81.00;;;;;;5054436;28;20063;-85
2022/01/21 11:08:42;;;;;;;11.18;2.00;;;3.90;80.90;;;;;;5056123;28;20123;-85
2022/01/21 11:11:11;;;;;;;9.23;1.90;;;3.80;80.80;;;;;;5051436;28;20068;-84
2022/01/21 11:13:39;;;;;;;11.05;1.67;;;3.70;81.00;;;;;;5041370;28;20054;-84
2022/01/21 11:16:23;;;;;;;9.75;1.52;;;3.90;81.20;;;;;;5036559;28;20425;-75
2022/01/21 11:18:56;;;;;;;6.85;1.42;;;4.10;80.90;;;;;;5046514;28;20040;-75
2022/01/21 11:21:23;;;;;;;9.93;1.65;;;4.30;80.50;;;;;;5054692;28;20456;-75
2022/01/21 11:23:49;;;;;;;13.73;2.17;;;4.40;79.90;;;;;;5050607;28;20013;-76
2022/01/21 11:26:17;;;;;;;9.02;1.83;;;4.40;80.10;;;;;;5047424;28;20476;-75
2022/01/21 11:28:46;;;;;;;10.57;1.88;;;4.50;80.00;;;;;;5044006;28;20080;-75
2022/01/21 11:31:13;;;;;;;12.32;1.95;;;4.70;80.20;;;;;;5047942;28;20036;-75
2022/01/21 11:33:39;;;;;;;7.25;1.30;;;4.80;80.00;;;;;;5055538;28;20025;-75
2022/01/21 11:36:06;;;;;;;11.18;1.27;;;5.00;79.30;;;;;;5050023;28;20049;-75
2022/01/21 11:38:35;;;;;;;7.32;1.75;;;4.90;79.20;;;;;;5054413;28;20028;-76
2022/01/21 11:41:02;;;;;;;12.88;2.08;;;4.80;80.00;;;;;;5044098;28;20099;-75
2022/01/21 11:43:30;;;;;;;8.77;1.70;;;4.80;80.40;;;;;;5046571;28;20025;-75
2022/01/21 11:51:17;;;;;;;;;;;4.60;81.60;;;;;;5046224;28;20029;-75
2022/01/21 11:53:45;;;;;;;7.80;1.70;;;4.50;82.20;;;;;;5050411;28;19958;-74
2022/01/21 11:56:35;;;;;;;10.68;1.92;;;4.40;82.50;;;;;;5046561;28;20061;-74
2022/01/21 11:59:12;;;;;;;8.82;1.48;;;4.40;82.90;;;;;;5048240;28;20037;-75
2022/01/21 12:01:47;;;;;;;15.77;1.63;;;4.30;83.30;;;;;;5037015;28;20057;-75
2022/01/21 12:04:34;;;;;;;15.98;1.92;;;4.30;83.90;;;;;;5046433;28;20367;-75
2022/01/21 12:07:00;;;;;;;7.68;1.42;;;4.20;84.50;;;;;;5045664;28;20040;-75
2022/01/21 12:09:54;;;;;;;12.55;1.85;;;4.10;85.00;;;;;;5043700;28;20080;-75
2022/01/21 12:12:20;;;;;;;10.25;1.65;;;4.00;85.90;;;;;;5045142;28;20412;-78
2022/01/21 12:14:51;;;;;;;8.95;2.17;;;3.90;86.40;;;;;;5048084;28;20045;-79
2022/01/21 12:17:43;;;;;;;8.93;1.67;;;4.00;86.70;;;;;;5046417;28;20424;-78
2022/01/21 12:20:09;;;;;;;4.93;1.90;;;4.00;86.90;;;;;;5048844;28;20360;-75
2022/01/21 12:22:35;;;;;;;7.93;1.70;;;4.00;87.00;;;;;;5046382;28;20037;-76
2022/01/21 12:25:09;;;;;;;8.43;1.52;;;3.90;87.30;;;;;;5047140;28;20464;-70
2022/01/21 12:27:36;;;;;;;6.88;1.77;;;4.00;87.40;;;;;;5032414;28;20045;-77
2022/01/21 12:30:20;;;;;;;5.28;1.27;;;4.00;87.50;;;;;;5029628;28;20293;-75
2022/01/21 12:33:12;;;;;;;6.72;1.40;;;4.00;87.90;;;;;;5031928;28;20022;-72
2022/01/21 12:35:38;;;;;;;9.30;1.40;;;4.00;88.40;;;;;;5023268;28;20385;-74
2022/01/21 12:40:54;;;;;;;8.82;1.98;;;3.90;89.10;;;;;;5030153;28;20780;-75
2022/01/21 12:43:49;;;;;;;6.68;1.48;;;3.90;89.30;;;;;;5032740;28;20381;-75
2022/01/21 12:46:38;;;;;;;7.63;1.55;;;3.90;89.40;;;;;;5035303;28;20108;-75
2022/01/21 12:49:29;;;;;;;7.82;1.42;;;3.90;89.60;;;;;;5020020;28;20083;-75
2022/01/21 12:52:09;;;;;;;10.00;1.77;;;3.90;89.60;;;;;;5031692;28;20026;-76
2022/01/21 12:57:31;;;;;;;6.88;1.02;;;4.00;89.50;;;;;;5033246;28;20036;-76
2022/01/21 13:00:08;;;;;;;7.60;1.35;;;4.00;89.60;;;;;;5025860;28;20022;-76
2022/01/21 13:02:34;;;;;;;9.75;1.65;;;3.90;89.70;;;;;;5032416;28;20018;-76
2022/01/21 13:05:02;;;;;;;6.28;1.80;;;3.90;89.70;;;;;;5031507;28;20049;-76
2022/01/21 13:07:42;;;;;;;4.82;1.05;;;3.80;89.90;;;;;;5032186;28;20501;-76
2022/01/21 13:10:26;;;;;;;5.28;1.10;;;3.80;89.90;;;;;;5019156;28;20052;-77
2022/01/21 13:15:46;;;;;;;7.38;1.30;;;3.80;90.00;;;;;;5029088;28;20042;-77
2022/01/21 13:18:23;;;;;;;5.40;1.33;;;3.80;90.10;;;;;;5031624;28;20049;-76
2022/01/21 13:20:55;;;;;;;7.57;1.23;;;3.90;89.90;;;;;;5026162;28;20030;-76
2022/01/21 13:23:42;;;;;;;11.45;1.70;;;3.90;90.00;;;;;;5024573;28;20108;-76
2022/01/21 13:26:23;;;;;;;7.28;1.65;;;4.00;90.00;;;;;;5041638;28;20069;-76
2022/01/21 13:28:57;;;;;;;9.68;1.27;;;4.00;89.70;;;;;;5028815;28;20017;-76
2022/01/21 13:31:24;;;;;;;9.43;1.35;;;4.00;89.60;;;;;;5028316;28;20376;-76
2022/01/21 13:33:50;;;;;;;8.00;1.20;;;4.00;89.50;;;;;;5031839;28;20025;-76
2022/01/21 13:36:44;;;;;;;7.03;1.50;;;3.90;89.60;;;;;;5030422;28;20452;-76
2022/01/21 13:39:12;;;;;;;8.90;2.22;;;3.90;89.90;;;;;;5025853;28;20030;-76
2022/01/21 13:42:07;;;;;;;6.40;1.48;;;3.90;90.10;;;;;;5028949;28;20056;-76
2022/01/21 13:44:44;;;;;;;8.38;2.25;;;3.80;90.00;;;;;;5029633;28;20029;-76
2022/01/21 13:47:39;;;;;;;12.65;2.85;;;3.70;90.50;;;;;;5029545;28;20402;-76
2022/01/21 13:50:13;;;;;;;10.90;2.53;;;3.80;90.90;;;;;;5017756;28;20022;-76
2022/01/21 13:52:41;;;;;;;11.93;2.00;;;3.70;91.10;;;;;;5027727;28;20061;-75